createdAt,value
2023-10-28T00:04:01.075Z,12.5
2023-10-28T00:14:01.065Z,12.5
2023-10-28T00:24:01.048Z,12.5
2023-10-28T00:34:01.041Z,12.4
2023-10-28T00:44:01.004Z,12.3
2023-10-28T00:54:01.053Z,12.2
2023-10-28T01:04:01.014Z,12.1
2023-10-28T01:14:00.956Z,11.9
2023-10-28T01:24:00.975Z,12
2023-10-28T01:34:00.948Z,11.9
2023-10-28T01:44:00.957Z,11.7
2023-10-28T01:54:00.954Z,11.5
2023-10-28T02:04:00.954Z,11.5
2023-10-28T02:14:00.949Z,11.5
2023-10-28T02:24:00.929Z,11.6
2023-10-28T02:34:00.924Z,11.7
2023-10-28T02:44:00.917Z,11.9
2023-10-28T02:54:00.876Z,11.8
2023-10-28T03:04:00.884Z,11.5
2023-10-28T03:14:01.367Z,11.3
2023-10-28T03:24:00.864Z,11.1
2023-10-28T03:34:00.895Z,10.8
2023-10-28T03:44:00.866Z,10.8
2023-10-28T03:54:00.840Z,10.7
2023-10-28T04:04:01.255Z,10.4
2023-10-28T04:14:02.769Z,10.4
2023-10-28T04:24:00.779Z,10.2
2023-10-28T04:34:00.795Z,10
2023-10-28T04:44:01.203Z,9.8
2023-10-28T04:54:00.793Z,9.7
2023-10-28T05:04:00.827Z,9.7
2023-10-28T05:14:00.761Z,9.8
2023-10-28T05:24:01.145Z,9.7
2023-10-28T05:34:02.671Z,9.6
2023-10-28T05:44:00.727Z,9.5
2023-10-28T05:54:01.155Z,9.5
2023-10-28T06:04:00.855Z,9.8
2023-10-28T06:14:00.701Z,9.9
2023-10-28T06:24:00.744Z,10
2023-10-28T06:34:01.134Z,10
2023-10-28T06:44:00.678Z,9.9
2023-10-28T06:54:00.666Z,9.9
2023-10-28T07:04:00.694Z,10
2023-10-28T07:14:00.623Z,11.2
2023-10-28T07:24:00.650Z,11
2023-10-28T07:34:00.604Z,10.8
2023-10-28T07:44:00.612Z,10.8
2023-10-28T07:54:00.593Z,11.1
2023-10-28T08:04:00.629Z,11.2
2023-10-28T08:14:01.140Z,11.2
2023-10-28T08:24:00.538Z,12.1
2023-10-28T08:34:01.022Z,12.5
2023-10-28T08:44:00.566Z,12.5
2023-10-28T08:54:00.571Z,13.7
2023-10-28T09:04:00.659Z,14.1
2023-10-28T09:14:00.949Z,14.9
2023-10-28T09:24:00.505Z,15
2023-10-28T09:34:00.467Z,16.1
2023-10-28T09:44:00.937Z,16.8
2023-10-28T09:54:00.477Z,16.2
2023-10-28T10:04:00.461Z,16.6
2023-10-28T10:14:00.447Z,17.7
2023-10-28T10:24:00.408Z,17.2
2023-10-28T10:34:12.444Z,17
2023-10-28T10:44:00.804Z,18.2
2023-10-28T10:54:00.386Z,19.1
2023-10-28T11:04:00.366Z,18.1
2023-10-28T11:14:00.369Z,17.3
2023-10-28T11:24:00.783Z,16.7
2023-10-28T11:34:00.394Z,16.4
2023-10-28T11:44:00.722Z,16
2023-10-28T11:54:00.335Z,16.1
2023-10-28T12:04:00.313Z,16.4
2023-10-28T12:14:00.741Z,17
2023-10-28T12:24:00.701Z,17.6
2023-10-28T12:34:00.220Z,17.6
2023-10-28T12:44:00.212Z,17.6
2023-10-28T12:54:00.226Z,17.8
2023-10-28T13:04:00.326Z,17.6
2023-10-28T13:14:00.183Z,18.4
2023-10-28T13:24:00.165Z,19.2
2023-10-28T13:34:00.164Z,19.3
2023-10-28T13:44:00.170Z,18.7
2023-10-28T13:54:00.139Z,18.6
2023-10-28T14:04:00.717Z,18.3
2023-10-28T14:14:00.118Z,18.4
2023-10-28T14:24:00.154Z,18.4
2023-10-28T14:34:00.501Z,18.5
2023-10-28T14:44:01.928Z,18.7
2023-10-28T14:54:03.222Z,19.2
2023-10-28T15:04:00.214Z,19.8
2023-10-28T15:14:00.388Z,20.8
2023-10-28T15:23:59.984Z,20.5
2023-10-28T15:33:59.972Z,19
2023-10-28T15:44:02.495Z,18
2023-10-28T15:53:59.912Z,17.3
2023-10-28T16:04:00.011Z,16.7
2023-10-28T16:13:59.869Z,16.2
2023-10-28T16:23:59.887Z,15.8
2023-10-28T16:33:59.863Z,15.6
2023-10-28T16:44:00.238Z,15.3
2023-10-28T16:53:59.828Z,15.1
2023-10-28T17:04:01.009Z,15
2023-10-28T17:13:59.796Z,14.8
2023-10-28T17:23:59.788Z,14.7
2023-10-28T17:33:59.773Z,14.6
2023-10-28T17:43:59.719Z,14.5
2023-10-28T17:54:00.200Z,14.4
2023-10-28T18:03:59.857Z,14.3
2023-10-28T18:14:00.146Z,14.2
2023-10-28T18:23:59.706Z,14.4
2023-10-28T18:33:59.706Z,14.3
2023-10-28T18:43:59.627Z,14.2
2023-10-28T18:53:59.662Z,14.7
2023-10-28T19:03:59.737Z,14.9
2023-10-28T19:13:59.603Z,14.3
2023-10-28T19:23:59.719Z,13.8
2023-10-28T19:34:01.604Z,13.9
2023-10-28T19:43:59.556Z,13.6
2023-10-28T19:54:00.004Z,13.5
2023-10-28T20:03:59.761Z,13.4
2023-10-28T20:13:59.516Z,13.2
2023-10-28T20:23:59.966Z,13.1
2023-10-28T20:34:01.470Z,12.8
2023-10-28T20:43:59.492Z,12.7
2023-10-28T20:53:59.950Z,12.8
2023-10-28T21:03:59.642Z,12.6
2023-10-28T21:13:59.448Z,12.7
2023-10-28T21:23:59.561Z,12.9
2023-10-28T21:33:59.477Z,13.1
2023-10-28T21:43:59.409Z,13.3
2023-10-28T21:53:59.389Z,13.3
2023-10-28T22:03:59.460Z,12.9
2023-10-28T22:13:59.803Z,12.7
2023-10-28T22:23:59.435Z,12.9
2023-10-28T22:33:59.367Z,13.9
2023-10-28T22:43:59.333Z,16.1
2023-10-28T22:53:59.413Z,17.2
2023-10-28T23:03:59.389Z,17.6
2023-10-28T23:13:59.280Z,17.8
2023-10-28T23:23:59.296Z,18
2023-10-28T23:33:59.269Z,18.1
2023-10-28T23:43:59.647Z,18.4
2023-10-28T23:53:59.256Z,18.5
